Crown City, Ohio
Current Conditions -  °F | °C
As of 4:51 PM on Tuesday 21 Oct 2014 (Local Time) from KHTS Reporting Station
Overcast Overcast  
Wind Chill: 52°   Ceiling: 4100
Heat Index: 52°   Visibility: 10mi
Dew Point: 42°   Wind: 7mph
Humidity: 69%   Direction: 290°WNW
Pressure: 30.03"   Gusts: NA
Location:  38.59°N, 82.28°W
Report Text: KHTS 212051Z 29006KT 10SM FEW028 BKN041 OVC070 11/06 A3003 RMK AO2 SLP170 P0001 60001 T01110056 53016
Loading
Personal Weather Stations






























Interactive Weather Map
Tropical Storm Tracking
New forecast layout! Learn more

10-Day Weather Forecast

Advertisements
Track Severe Weather on mobile